Riccarton, New Zealand
Current Conditions -  °F | °C
As of 8:30 AM on Sunday 26 Oct 2014 (Local Time) from NZCH Reporting Station
Clear Clear  
Wind Chill: 54°   Ceiling: Unl
Heat Index: 54°   Visibility: 6mi
Dew Point: 41°   Wind: 3mph
Humidity: 62%   Direction: 70°ENE
Pressure: 29.74"   Gusts: NA
Location:  43.53°S, 172.6°E
Report Text: NZCH 252030Z AUTO 07003KT 9999 NCD 12/05 Q1007 NOSIG
Loading
Personal Weather Stations






























Interactive Weather Map
Tropical Storm Tracking
New forecast layout! Learn more

10-Day Weather Forecast

Advertisements
Track Severe Weather on mobile